sensor_id;sensor_type;location;lat;lon;timestamp;pressure;altitude;pressure_sealevel;temperature;humidity
74561;BME280;62979;55.720;37.606;2022-10-16T00:01:10;100954.75;;;8.20;51.32
74561;BME280;62979;55.720;37.606;2022-10-16T00:03:39;100944.31;;;8.15;51.62
74561;BME280;62979;55.720;37.606;2022-10-16T00:06:08;100942.59;;;8.24;51.40
74561;BME280;62979;55.720;37.606;2022-10-16T00:08:36;100952.13;;;8.22;51.29
74561;BME280;62979;55.720;37.606;2022-10-16T00:11:06;100957.34;;;8.22;51.46
74561;BME280;62979;55.720;37.606;2022-10-16T00:13:36;100955.59;;;8.14;51.56
74561;BME280;62979;55.720;37.606;2022-10-16T00:16:05;100954.72;;;8.19;51.60
74561;BME280;62979;55.720;37.606;2022-10-16T00:18:35;100951.25;;;8.13;51.63
74561;BME280;62979;55.720;37.606;2022-10-16T00:21:04;100965.16;;;8.19;51.64
74561;BME280;62979;55.720;37.606;2022-10-16T00:23:33;100964.31;;;8.20;51.66
74561;BME280;62979;55.720;37.606;2022-10-16T00:26:03;100967.78;;;8.20;51.79
74561;BME280;62979;55.720;37.606;2022-10-16T00:28:34;100964.31;;;8.20;51.81
74561;BME280;62979;55.720;37.606;2022-10-16T00:31:03;100967.75;;;8.19;51.70
74561;BME280;62979;55.720;37.606;2022-10-16T00:33:31;100956.41;;;8.09;51.72
74561;BME280;62979;55.720;37.606;2022-10-16T00:36:00;100961.63;;;8.09;51.83
74561;BME280;62979;55.720;37.606;2022-10-16T00:38:28;100964.25;;;8.13;51.95
74561;BME280;62979;55.720;37.606;2022-10-16T00:40:55;100964.25;;;8.10;51.84
74561;BME280;62979;55.720;37.606;2022-10-16T00:43:37;100961.63;;;8.06;51.93
74561;BME280;62979;55.720;37.606;2022-10-16T00:46:13;100955.53;;;8.02;51.96
74561;BME280;62979;55.720;37.606;2022-10-16T00:48:48;100973.75;;;8.04;52.05
74561;BME280;62979;55.720;37.606;2022-10-16T00:51:23;100966.75;;;7.93;52.04
74561;BME280;62979;55.720;37.606;2022-10-16T00:53:56;100967.63;;;7.96;52.05
74561;BME280;62979;55.720;37.606;2022-10-16T00:56:24;100965.03;;;7.96;51.97
74561;BME280;62979;55.720;37.606;2022-10-16T00:58:52;100974.63;;;8.04;52.19
74561;BME280;62979;55.720;37.606;2022-10-16T01:01:19;100969.41;;;8.03;52.09
74561;BME280;62979;55.720;37.606;2022-10-16T01:03:46;100957.22;;;7.97;51.91
74561;BME280;62979;55.720;37.606;2022-10-16T01:06:23;100971.16;;;8.02;51.93
74561;BME280;62979;55.720;37.606;2022-10-16T01:09:06;100977.19;;;7.95;52.09
74561;BME280;62979;55.720;37.606;2022-10-16T01:11:42;100976.31;;;7.96;52.22
74561;BME280;62979;55.720;37.606;2022-10-16T01:14:21;100978.91;;;7.96;52.25
74561;BME280;62979;55.720;37.606;2022-10-16T01:16:56;100965.84;;;7.90;52.16
74561;BME280;62979;55.720;37.606;2022-10-16T01:19:41;100972.81;;;7.94;52.24
74561;BME280;62979;55.720;37.606;2022-10-16T01:22:25;100984.16;;;7.99;52.07
74561;BME280;62979;55.720;37.606;2022-10-16T01:25:07;100978.03;;;7.97;52.10
74561;BME280;62979;55.720;37.606;2022-10-16T01:27:41;100980.69;;;8.02;52.27
74561;BME280;62979;55.720;37.606;2022-10-16T01:30:16;100978.94;;;7.98;51.99
74561;BME280;62979;55.720;37.606;2022-10-16T01:32:51;100986.78;;;8.02;51.90
74561;BME280;62979;55.720;37.606;2022-10-16T01:35:25;100994.59;;;8.04;52.30
74561;BME280;62979;55.720;37.606;2022-10-16T01:37:59;100998.00;;;7.93;53.23
74561;BME280;62979;55.720;37.606;2022-10-16T01:40:32;100994.56;;;7.96;53.41
74561;BME280;62979;55.720;37.606;2022-10-16T01:43:06;100991.94;;;7.93;53.83
74561;BME280;62979;55.720;37.606;2022-10-16T01:45:37;100991.06;;;7.94;53.83
74561;BME280;62979;55.720;37.606;2022-10-16T01:48:07;100996.28;;;7.94;54.04
74561;BME280;62979;55.720;37.606;2022-10-16T01:50:40;100987.56;;;7.92;53.90
74561;BME280;62979;55.720;37.606;2022-10-16T01:53:12;100992.81;;;7.95;54.34
74561;BME280;62979;55.720;37.606;2022-10-16T01:55:46;100987.53;;;7.86;54.28
74561;BME280;62979;55.720;37.606;2022-10-16T01:58:17;100990.16;;;7.92;54.65
74561;BME280;62979;55.720;37.606;2022-10-16T02:00:45;100991.94;;;7.93;54.26
74561;BME280;62979;55.720;37.606;2022-10-16T02:03:16;100998.03;;;7.95;54.16
74561;BME280;62979;55.720;37.606;2022-10-16T02:05:47;101003.19;;;7.90;53.65
74561;BME280;62979;55.720;37.606;2022-10-16T02:08:18;101003.19;;;7.92;53.35
74561;BME280;62979;55.720;37.606;2022-10-16T02:10:46;100995.38;;;7.89;54.06
74561;BME280;62979;55.720;37.606;2022-10-16T02:13:18;101011.00;;;7.90;54.83
74561;BME280;62979;55.720;37.606;2022-10-16T02:15:50;100995.34;;;7.83;54.93
74561;BME280;62979;55.720;37.606;2022-10-16T02:18:17;100998.84;;;7.88;54.80
74561;BME280;62979;55.720;37.606;2022-10-16T02:20:50;100998.84;;;7.88;54.84
74561;BME280;62979;55.720;37.606;2022-10-16T02:23:25;100986.66;;;7.84;55.43
74561;BME280;62979;55.720;37.606;2022-10-16T02:26:01;100980.47;;;7.71;55.05
74561;BME280;62979;55.720;37.606;2022-10-16T02:28:36;101001.38;;;7.82;54.61
74561;BME280;62979;55.720;37.606;2022-10-16T02:31:11;101007.47;;;7.81;54.66
74561;BME280;62979;55.720;37.606;2022-10-16T02:33:43;101005.72;;;7.80;54.99
74561;BME280;62979;55.720;37.606;2022-10-16T02:36:12;101012.69;;;7.81;54.88
74561;BME280;62979;55.720;37.606;2022-10-16T02:38:40;101010.06;;;7.81;54.69
74561;BME280;62979;55.720;37.606;2022-10-16T02:41:08;101013.50;;;7.80;54.83
74561;BME280;62979;55.720;37.606;2022-10-16T02:43:37;101008.25;;;7.75;54.69
74561;BME280;62979;55.720;37.606;2022-10-16T02:46:04;101014.38;;;7.77;54.75
74561;BME280;62979;55.720;37.606;2022-10-16T02:48:31;101014.31;;;7.72;54.75
74561;BME280;62979;55.720;37.606;2022-10-16T02:50:58;101014.34;;;7.74;54.71
74561;BME280;62979;55.720;37.606;2022-10-16T02:53:25;101012.59;;;7.71;54.80
74561;BME280;62979;55.720;37.606;2022-10-16T02:55:52;101016.91;;;7.69;54.59
74561;BME280;62979;55.720;37.606;2022-10-16T02:58:19;101017.78;;;7.68;54.41
74561;BME280;62979;55.720;37.606;2022-10-16T03:00:48;101019.44;;;7.60;54.47
74561;BME280;62979;55.720;37.606;2022-10-16T03:03:15;101021.13;;;7.58;54.55
74561;BME280;62979;55.720;37.606;2022-10-16T03:05:43;101019.38;;;7.54;54.21
74561;BME280;62979;55.720;37.606;2022-10-16T03:08:11;101021.97;;;7.56;54.67
74561;BME280;62979;55.720;37.606;2022-10-16T03:10:38;101027.19;;;7.56;54.55
74561;BME280;62979;55.720;37.606;2022-10-16T03:13:05;101016.75;;;7.51;54.52
74561;BME280;62979;55.720;37.606;2022-10-16T03:15:32;101014.97;;;7.48;54.64
74561;BME280;62979;55.720;37.606;2022-10-16T03:18:01;101016.72;;;7.46;54.65
74561;BME280;62979;55.720;37.606;2022-10-16T03:20:28;101028.88;;;7.50;54.72
74561;BME280;62979;55.720;37.606;2022-10-16T03:22:54;101027.94;;;7.42;54.97
74561;BME280;62979;55.720;37.606;2022-10-16T03:25:21;101023.63;;;7.41;55.23
74561;BME280;62979;55.720;37.606;2022-10-16T03:27:48;101036.63;;;7.46;55.04
74561;BME280;62979;55.720;37.606;2022-10-16T03:30:16;101030.56;;;7.42;55.18
74561;BME280;62979;55.720;37.606;2022-10-16T03:32:43;101043.59;;;7.44;55.33
74561;BME280;62979;55.720;37.606;2022-10-16T03:35:12;101013.88;;;7.23;55.45
74561;BME280;62979;55.720;37.606;2022-10-16T03:37:39;101042.66;;;7.40;55.60
74561;BME280;62979;55.720;37.606;2022-10-16T03:40:07;101033.06;;;7.32;55.70
74561;BME280;62979;55.720;37.606;2022-10-16T03:42:35;101060.84;;;7.39;55.76
74561;BME280;62979;55.720;37.606;2022-10-16T03:45:02;101046.06;;;7.33;55.61
74561;BME280;62979;55.720;37.606;2022-10-16T03:47:30;101055.63;;;7.36;55.48
74561;BME280;62979;55.720;37.606;2022-10-16T03:49:58;101043.47;;;7.32;55.77
74561;BME280;62979;55.720;37.606;2022-10-16T03:52:26;101052.13;;;7.34;55.72
74561;BME280;62979;55.720;37.606;2022-10-16T03:54:55;101057.34;;;7.34;55.66
74561;BME280;62979;55.720;37.606;2022-10-16T03:57:22;101060.81;;;7.33;56.00
74561;BME280;62979;55.720;37.606;2022-10-16T03:59:49;101047.72;;;7.25;56.03
74561;BME280;62979;55.720;37.606;2022-10-16T04:02:16;101052.94;;;7.25;55.79
74561;BME280;62979;55.720;37.606;2022-10-16T04:04:43;101045.94;;;7.21;55.87
74561;BME280;62979;55.720;37.606;2022-10-16T04:07:10;101044.22;;;7.23;55.90
74561;BME280;62979;55.720;37.606;2022-10-16T04:09:38;101053.75;;;7.22;55.79
74561;BME280;62979;55.720;37.606;2022-10-16T04:12:05;101029.38;;;7.14;56.00
74561;BME280;62979;55.720;37.606;2022-10-16T04:14:32;101050.28;;;7.23;55.78
74561;BME280;62979;55.720;37.606;2022-10-16T04:16:59;101030.28;;;7.16;55.96
74561;BME280;62979;55.720;37.606;2022-10-16T04:19:26;101050.34;;;7.28;55.85
74561;BME280;62979;55.720;37.606;2022-10-16T04:21:53;101042.50;;;7.26;55.67
74561;BME280;62979;55.720;37.606;2022-10-16T04:24:20;101037.28;;;7.23;55.70
74561;BME280;62979;55.720;37.606;2022-10-16T04:26:49;101052.94;;;7.28;55.50
74561;BME280;62979;55.720;37.606;2022-10-16T04:29:16;101040.75;;;7.24;55.63
74561;BME280;62979;55.720;37.606;2022-10-16T04:31:43;101056.47;;;7.33;55.74
74561;BME280;62979;55.720;37.606;2022-10-16T04:34:10;101060.84;;;7.36;55.54
74561;BME280;62979;55.720;37.606;2022-10-16T04:36:37;101064.34;;;7.38;55.68
74561;BME280;62979;55.720;37.606;2022-10-16T04:39:04;101058.22;;;7.36;55.49
74561;BME280;62979;55.720;37.606;2022-10-16T04:41:31;101070.41;;;7.38;55.34
74561;BME280;62979;55.720;37.606;2022-10-16T04:43:59;101073.03;;;7.40;55.13
74561;BME280;62979;55.720;37.606;2022-10-16T04:46:26;101070.47;;;7.41;55.19
74561;BME280;62979;55.720;37.606;2022-10-16T04:48:53;101060.03;;;7.40;55.08
74561;BME280;62979;55.720;37.606;2022-10-16T04:51:20;101063.53;;;7.45;54.86
74561;BME280;62979;55.720;37.606;2022-10-16T04:53:47;101067.88;;;7.44;55.01
74561;BME280;62979;55.720;37.606;2022-10-16T04:56:14;101073.09;;;7.46;54.93
74561;BME280;62979;55.720;37.606;2022-10-16T04:58:41;101069.63;;;7.47;55.02
74561;BME280;62979;55.720;37.606;2022-10-16T05:01:09;101074.03;;;7.51;54.98
74561;BME280;62979;55.720;37.606;2022-10-16T05:03:36;101065.31;;;7.49;55.01
74561;BME280;62979;55.720;37.606;2022-10-16T05:06:05;101074.06;;;7.54;54.79
74561;BME280;62979;55.720;37.606;2022-10-16T05:08:32;101066.25;;;7.56;54.71
74561;BME280;62979;55.720;37.606;2022-10-16T05:11:00;101057.53;;;7.52;54.69
74561;BME280;62979;55.720;37.606;2022-10-16T05:13:27;101071.56;;;7.63;54.56
74561;BME280;62979;55.720;37.606;2022-10-16T05:15:54;101073.28;;;7.64;55.65
74561;BME280;62979;55.720;37.606;2022-10-16T05:18:23;101067.19;;;7.62;56.39
74561;BME280;62979;55.720;37.606;2022-10-16T05:20:50;101075.97;;;7.75;55.75
74561;BME280;62979;55.720;37.606;2022-10-16T05:23:17;101074.28;;;7.80;56.33
74561;BME280;62979;55.720;37.606;2022-10-16T05:25:52;101072.56;;;7.81;55.49
74561;BME280;62979;55.720;37.606;2022-10-16T05:28:21;101080.50;;;7.93;55.25
74561;BME280;62979;55.720;37.606;2022-10-16T05:30:48;101076.13;;;7.92;55.08
74561;BME280;62979;55.720;37.606;2022-10-16T05:33:15;101077.09;;;8.00;55.13
74561;BME280;62979;55.720;37.606;2022-10-16T05:35:44;101073.63;;;8.04;55.32
74561;BME280;62979;55.720;37.606;2022-10-16T05:38:11;101085.00;;;8.15;54.76
74561;BME280;62979;55.720;37.606;2022-10-16T05:40:38;101078.09;;;8.18;54.80
74561;BME280;62979;55.720;37.606;2022-10-16T05:43:05;101085.06;;;8.26;54.33
74561;BME280;62979;55.720;37.606;2022-10-16T05:45:33;101079.91;;;8.31;53.75
74561;BME280;62979;55.720;37.606;2022-10-16T05:48:00;101081.66;;;8.33;53.52
74561;BME280;62979;55.720;37.606;2022-10-16T05:50:27;101071.28;;;8.36;53.50
74561;BME280;62979;55.720;37.606;2022-10-16T05:52:56;101080.91;;;8.42;53.44
74561;BME280;62979;55.720;37.606;2022-10-16T05:55:23;101084.41;;;8.47;53.25
74561;BME280;62979;55.720;37.606;2022-10-16T05:57:53;101087.91;;;8.52;52.71
74561;BME280;62979;55.720;37.606;2022-10-16T06:00:21;101077.47;;;8.49;52.77
74561;BME280;62979;55.720;37.606;2022-10-16T06:02:48;101096.69;;;8.64;52.11
74561;BME280;62979;55.720;37.606;2022-10-16T06:05:15;101101.03;;;8.69;51.96
74561;BME280;62979;55.720;37.606;2022-10-16T06:07:45;101091.47;;;8.64;52.50
74561;BME280;62979;55.720;37.606;2022-10-16T06:10:13;101096.75;;;8.76;51.81
74561;BME280;62979;55.720;37.606;2022-10-16T06:12:40;101082.84;;;8.80;51.45
74561;BME280;62979;55.720;37.606;2022-10-16T06:15:08;101089.84;;;8.92;51.31
74561;BME280;62979;55.720;37.606;2022-10-16T06:17:35;101099.47;;;9.02;50.93
74561;BME280;62979;55.720;37.606;2022-10-16T06:20:02;101090.81;;;9.08;50.76
74561;BME280;62979;55.720;37.606;2022-10-16T06:22:30;101086.44;;;9.07;50.84
74561;BME280;62979;55.720;37.606;2022-10-16T06:24:57;101088.22;;;9.18;50.55
74561;BME280;62979;55.720;37.606;2022-10-16T06:27:25;101091.75;;;9.25;50.18
74561;BME280;62979;55.720;37.606;2022-10-16T06:29:52;101096.97;;;9.28;50.31
74561;BME280;62979;55.720;37.606;2022-10-16T06:32:19;101090.03;;;9.33;50.30
74561;BME280;62979;55.720;37.606;2022-10-16T06:34:47;101097.00;;;9.34;50.35
74561;BME280;62979;55.720;37.606;2022-10-16T06:37:13;101102.25;;;9.47;50.11
74561;BME280;62979;55.720;37.606;2022-10-16T06:39:40;101105.75;;;9.55;49.94
74561;BME280;62979;55.720;37.606;2022-10-16T06:42:08;101104.00;;;9.63;49.43
74561;BME280;62979;55.720;37.606;2022-10-16T06:44:36;101101.41;;;9.72;49.30
74561;BME280;62979;55.720;37.606;2022-10-16T06:47:03;101097.09;;;9.79;48.85
74561;BME280;62979;55.720;37.606;2022-10-16T06:49:30;101101.47;;;9.83;48.99
74561;BME280;62979;55.720;37.606;2022-10-16T06:51:57;101106.69;;;9.94;48.90
74561;BME280;62979;55.720;37.606;2022-10-16T06:54:24;101098.88;;;10.00;48.38
74561;BME280;62979;55.720;37.606;2022-10-16T06:56:52;101104.06;;;10.01;48.68
74561;BME280;62979;55.720;37.606;2022-10-16T06:59:19;101091.03;;;9.95;48.70
74561;BME280;62979;55.720;37.606;2022-10-16T07:01:48;101095.38;;;10.01;48.79
74561;BME280;62979;55.720;37.606;2022-10-16T07:04:15;101104.06;;;10.06;48.72
74561;BME280;62979;55.720;37.606;2022-10-16T07:06:43;101106.69;;;10.15;47.94
74561;BME280;62979;55.720;37.606;2022-10-16T07:09:11;101106.72;;;10.31;47.35
74561;BME280;62979;55.720;37.606;2022-10-16T07:11:39;101103.22;;;10.38;47.16
74561;BME280;62979;55.720;37.606;2022-10-16T07:14:13;101104.94;;;10.25;46.95
74561;BME280;62979;55.720;37.606;2022-10-16T07:16:42;101121.53;;;10.19;47.05
74561;BME280;62979;55.720;37.606;2022-10-16T07:19:11;101116.28;;;10.19;46.67
74561;BME280;62979;55.720;37.606;2022-10-16T07:21:40;101109.31;;;10.27;46.91
74561;BME280;62979;55.720;37.606;2022-10-16T07:24:12;101123.22;;;10.26;46.66
74561;BME280;62979;55.720;37.606;2022-10-16T07:26:41;101099.72;;;10.17;46.46
74561;BME280;62979;55.720;37.606;2022-10-16T07:29:12;101113.69;;;10.33;47.05
74561;BME280;62979;55.720;37.606;2022-10-16T07:31:41;101122.38;;;10.47;46.57
74561;BME280;62979;55.720;37.606;2022-10-16T07:34:11;101094.50;;;10.46;46.66
74561;BME280;62979;55.720;37.606;2022-10-16T07:36:40;101107.53;;;10.65;46.25
74561;BME280;62979;55.720;37.606;2022-10-16T07:39:07;101114.50;;;10.72;46.39
74561;BME280;62979;55.720;37.606;2022-10-16T07:41:35;101108.41;;;10.71;46.07
74561;BME280;62979;55.720;37.606;2022-10-16T07:44:03;101120.59;;;10.74;45.71
74561;BME280;62979;55.720;37.606;2022-10-16T07:46:31;101118.88;;;10.67;46.15
74561;BME280;62979;55.720;37.606;2022-10-16T07:48:59;101104.06;;;10.70;46.10
74561;BME280;62979;55.720;37.606;2022-10-16T07:51:27;101112.75;;;10.76;46.02
74561;BME280;62979;55.720;37.606;2022-10-16T07:53:55;101121.47;;;10.84;45.86
74561;BME280;62979;55.720;37.606;2022-10-16T07:56:22;101110.09;;;10.86;45.63
74561;BME280;62979;55.720;37.606;2022-10-16T07:58:50;101119.69;;;10.95;46.10
74561;BME280;62979;55.720;37.606;2022-10-16T08:01:18;101128.41;;;10.94;45.26
74561;BME280;62979;55.720;37.606;2022-10-16T08:03:47;101100.53;;;10.75;45.34
74561;BME280;62979;55.720;37.606;2022-10-16T08:06:16;101128.41;;;10.85;45.54
74561;BME280;62979;55.720;37.606;2022-10-16T08:08:45;101114.47;;;10.80;45.48
74561;BME280;62979;55.720;37.606;2022-10-16T08:11:13;101120.59;;;10.77;45.79
74561;BME280;62979;55.720;37.606;2022-10-16T08:13:40;101127.56;;;10.80;45.49
74561;BME280;62979;55.720;37.606;2022-10-16T08:16:08;101126.69;;;10.85;45.45
74561;BME280;62979;55.720;37.606;2022-10-16T08:18:36;101126.66;;;10.93;45.37
74561;BME280;62979;55.720;37.606;2022-10-16T08:21:10;101121.44;;;10.93;45.29
74561;BME280;62979;55.720;37.606;2022-10-16T08:23:39;101113.53;;;11.04;45.39
74561;BME280;62979;55.720;37.606;2022-10-16T08:26:08;101112.59;;;11.19;45.18
74561;BME280;62979;55.720;37.606;2022-10-16T08:28:36;101128.22;;;11.40;44.83
74561;BME280;62979;55.720;37.606;2022-10-16T08:31:08;101130.91;;;11.26;44.60
74561;BME280;62979;55.720;37.606;2022-10-16T08:33:36;101126.56;;;11.27;44.89
74561;BME280;62979;55.720;37.606;2022-10-16T08:36:05;101110.78;;;11.33;44.93
74561;BME280;62979;55.720;37.606;2022-10-16T08:38:33;101109.81;;;11.52;44.55
74561;BME280;62979;55.720;37.606;2022-10-16T08:41:17;101125.53;;;11.51;44.00
74561;BME280;62979;55.720;37.606;2022-10-16T08:44:16;101110.69;;;11.54;44.06
74561;BME280;62979;55.720;37.606;2022-10-16T08:47:02;101096.75;;;11.49;44.13
74561;BME280;62979;55.720;37.606;2022-10-16T08:49:41;101116.75;;;11.60;44.23
74561;BME280;62979;55.720;37.606;2022-10-16T08:52:14;101101.88;;;11.65;44.17
74561;BME280;62979;55.720;37.606;2022-10-16T08:54:44;101100.84;;;11.92;43.88
74561;BME280;62979;55.720;37.606;2022-10-16T08:57:20;101099.88;;;12.10;43.13
74561;BME280;62979;55.720;37.606;2022-10-16T08:59:49;101097.22;;;12.11;42.71
74561;BME280;62979;55.720;37.606;2022-10-16T09:02:24;101100.66;;;12.19;44.38
74561;BME280;62979;55.720;37.606;2022-10-16T09:05:17;101119.94;;;12.11;42.37
74561;BME280;62979;55.720;37.606;2022-10-16T09:07:58;101107.69;;;12.11;42.44
74561;BME280;62979;55.720;37.606;2022-10-16T09:10:42;101108.63;;;12.06;42.31
74561;BME280;62979;55.720;37.606;2022-10-16T09:13:26;101127.06;;;11.95;42.75
74561;BME280;62979;55.720;37.606;2022-10-16T09:16:04;101108.75;;;11.90;42.93
74561;BME280;62979;55.720;37.606;2022-10-16T09:18:48;101121.75;;;12.01;42.87
74561;BME280;62979;55.720;37.606;2022-10-16T09:21:24;101101.69;;;12.00;42.93
74561;BME280;62979;55.720;37.606;2022-10-16T09:23:57;101087.47;;;12.26;43.29
74561;BME280;62979;55.720;37.606;2022-10-16T09:26:31;101112.41;;;12.70;42.12
74561;BME280;62979;55.720;37.606;2022-10-16T09:28:59;101101.94;;;12.65;41.24
74561;BME280;62979;55.720;37.606;2022-10-16T09:31:26;101114.91;;;12.83;41.13
74561;BME280;62979;55.720;37.606;2022-10-16T09:33:58;101094.50;;;13.04;39.99
74561;BME280;62979;55.720;37.606;2022-10-16T09:36:39;101097.72;;;13.32;39.98
74561;BME280;62979;55.720;37.606;2022-10-16T09:39:10;101096.22;;;13.76;39.22
74561;BME280;62979;55.720;37.606;2022-10-16T09:41:40;101086.75;;;14.19;39.32
74561;BME280;62979;55.720;37.606;2022-10-16T09:44:20;101088.88;;;14.94;37.44
74561;BME280;62979;55.720;37.606;2022-10-16T09:47:01;101079.31;;;15.32;36.62
74561;BME280;62979;55.720;37.606;2022-10-16T09:49:28;101095.56;;;15.92;35.97
74561;BME280;62979;55.720;37.606;2022-10-16T09:52:04;101084.13;;;16.27;33.96
74561;BME280;62979;55.720;37.606;2022-10-16T09:54:32;101091.22;;;16.25;33.50
74561;BME280;62979;55.720;37.606;2022-10-16T09:57:05;101091.94;;;16.64;32.98
74561;BME280;62979;55.720;37.606;2022-10-16T09:59:46;101085.50;;;16.75;32.49
74561;BME280;62979;55.720;37.606;2022-10-16T10:02:15;101078.34;;;16.80;32.80
74561;BME280;62979;55.720;37.606;2022-10-16T10:04:49;101089.22;;;17.00;32.72
74561;BME280;62979;55.720;37.606;2022-10-16T10:07:24;101068.13;;;17.57;32.08
74561;BME280;62979;55.720;37.606;2022-10-16T10:09:56;101088.06;;;17.68;31.01
74561;BME280;62979;55.720;37.606;2022-10-16T10:12:24;101069.50;;;18.23;30.57
74561;BME280;62979;55.720;37.606;2022-10-16T10:14:57;101084.72;;;18.68;29.74
74561;BME280;62979;55.720;37.606;2022-10-16T10:17:30;101079.41;;;18.68;29.77
74561;BME280;62979;55.720;37.606;2022-10-16T10:19:59;101059.25;;;18.89;29.56
74561;BME280;62979;55.720;37.606;2022-10-16T10:22:31;101078.53;;;19.40;28.80
74561;BME280;62979;55.720;37.606;2022-10-16T10:28:38;101060.84;;;20.27;27.80
74561;BME280;62979;55.720;37.606;2022-10-16T10:31:22;101069.56;;;19.88;27.51
74561;BME280;62979;55.720;37.606;2022-10-16T10:34:00;101064.97;;;19.92;27.19
74561;BME280;62979;55.720;37.606;2022-10-16T10:36:40;101064.09;;;19.71;27.87
74561;BME280;62979;55.720;37.606;2022-10-16T10:39:15;101056.22;;;20.32;27.60
74561;BME280;62979;55.720;37.606;2022-10-16T10:42:08;101065.78;;;20.57;26.55
74561;BME280;62979;55.720;37.606;2022-10-16T10:44:59;101061.66;;;20.70;26.52
74561;BME280;62979;55.720;37.606;2022-10-16T10:47:48;101065.41;;;20.66;26.96
74561;BME280;62979;55.720;37.606;2022-10-16T10:50:41;101060.28;;;21.38;26.46
74561;BME280;62979;55.720;37.606;2022-10-16T10:53:24;101054.41;;;21.51;25.48
74561;BME280;62979;55.720;37.606;2022-10-16T10:56:10;101070.63;;;21.64;25.37
74561;BME280;62979;55.720;37.606;2022-10-16T10:59:00;101048.22;;;21.68;25.36
74561;BME280;62979;55.720;37.606;2022-10-16T11:01:43;101049.91;;;21.70;24.97
74561;BME280;62979;55.720;37.606;2022-10-16T11:04:41;101067.03;;;21.46;25.34
74561;BME280;62979;55.720;37.606;2022-10-16T11:07:24;101046.09;;;21.93;25.12
74561;BME280;62979;55.720;37.606;2022-10-16T11:09:57;101054.78;;;22.67;24.29
74561;BME280;62979;55.720;37.606;2022-10-16T11:12:31;101044.66;;;22.89;24.29
74561;BME280;62979;55.720;37.606;2022-10-16T11:15:05;101048.09;;;23.40;23.75
74561;BME280;62979;55.720;37.606;2022-10-16T11:17:42;101058.50;;;23.13;23.50
74561;BME280;62979;55.720;37.606;2022-10-16T11:20:20;101049.47;;;23.47;23.38
74561;BME280;62979;55.720;37.606;2022-10-16T11:22:53;101042.06;;;23.53;23.17
74561;BME280;62979;55.720;37.606;2022-10-16T11:25:26;101027.19;;;23.17;23.31
74561;BME280;62979;55.720;37.606;2022-10-16T11:28:00;101039.31;;;23.38;23.09
74561;BME280;62979;55.720;37.606;2022-10-16T11:30:32;101066.31;;;23.00;23.29
74561;BME280;62979;55.720;37.606;2022-10-16T11:33:20;101044.97;;;22.67;23.70
74561;BME280;62979;55.720;37.606;2022-10-16T11:35:59;101032.16;;;22.74;23.98
74561;BME280;62979;55.720;37.606;2022-10-16T11:38:34;101037.16;;;23.45;23.10
74561;BME280;62979;55.720;37.606;2022-10-16T11:41:15;101038.28;;;23.25;23.07
74561;BME280;62979;55.720;37.606;2022-10-16T11:43:54;101038.53;;;22.87;23.68
74561;BME280;62979;55.720;37.606;2022-10-16T11:46:34;101040.22;;;22.56;24.05
74561;BME280;62979;55.720;37.606;2022-10-16T11:49:10;101025.00;;;22.58;23.92
74561;BME280;62979;55.720;37.606;2022-10-16T11:51:48;101039.41;;;22.54;24.06
74561;BME280;62979;55.720;37.606;2022-10-16T11:54:26;101026.81;;;22.40;24.58
74561;BME280;62979;55.720;37.606;2022-10-16T11:57:03;101039.78;;;22.97;23.93
74561;BME280;62979;55.720;37.606;2022-10-16T11:59:43;101031.84;;;22.96;23.68
74561;BME280;62979;55.720;37.606;2022-10-16T12:02:29;101030.50;;;23.52;22.76
74561;BME280;62979;55.720;37.606;2022-10-16T12:05:18;101028.97;;;23.48;22.95
74561;BME280;62979;55.720;37.606;2022-10-16T12:07:58;101046.06;;;22.96;23.68
74561;BME280;62979;55.720;37.606;2022-10-16T12:10:33;101047.69;;;22.83;23.82
74561;BME280;62979;55.720;37.606;2022-10-16T12:13:02;101043.09;;;23.02;23.33
74561;BME280;62979;55.720;37.606;2022-10-16T12:15:32;101040.25;;;23.05;23.51
74561;BME280;62979;55.720;37.606;2022-10-16T12:17:59;101035.94;;;23.66;22.97
74561;BME280;62979;55.720;37.606;2022-10-16T12:20:28;101033.25;;;24.12;22.83
74561;BME280;62979;55.720;37.606;2022-10-16T12:23:00;101022.19;;;24.49;22.05
74561;BME280;62979;55.720;37.606;2022-10-16T12:25:30;101013.69;;;24.85;21.80
74561;BME280;62979;55.720;37.606;2022-10-16T12:28:01;101010.03;;;24.86;21.36
74561;BME280;62979;55.720;37.606;2022-10-16T12:30:32;101003.09;;;25.11;21.38
74561;BME280;62979;55.720;37.606;2022-10-16T12:33:03;101005.50;;;25.57;21.19
74561;BME280;62979;55.720;37.606;2022-10-16T12:35:34;101008.09;;;25.71;21.28
74561;BME280;62979;55.720;37.606;2022-10-16T12:38:18;101009.28;;;25.80;20.62
74561;BME280;62979;55.720;37.606;2022-10-16T12:40:56;101018.53;;;25.49;20.83
74561;BME280;62979;55.720;37.606;2022-10-16T12:43:39;101004.88;;;24.97;21.28
74561;BME280;62979;55.720;37.606;2022-10-16T12:46:35;101004.75;;;24.99;21.46
74561;BME280;62979;55.720;37.606;2022-10-16T12:51:55;101001.44;;;25.37;21.20
74561;BME280;62979;55.720;37.606;2022-10-16T12:54:28;100986.16;;;25.39;21.22
74561;BME280;62979;55.720;37.606;2022-10-16T12:57:22;100997.69;;;25.67;21.05
74561;BME280;62979;55.720;37.606;2022-10-16T13:00:04;100982.66;;;25.91;20.81
74561;BME280;62979;55.720;37.606;2022-10-16T13:02:59;101002.97;;;26.21;20.51
74561;BME280;62979;55.720;37.606;2022-10-16T13:05:53;100999.03;;;26.26;20.53
74561;BME280;62979;55.720;37.606;2022-10-16T13:08:42;101004.34;;;26.14;20.71
74561;BME280;62979;55.720;37.606;2022-10-16T13:11:32;100995.34;;;26.02;20.59
74561;BME280;62979;55.720;37.606;2022-10-16T13:14:33;101000.47;;;25.38;20.80
74561;BME280;62979;55.720;37.606;2022-10-16T13:17:30;101003.75;;;25.29;21.03